»·PEaware :: N1964Y KBUR-KLAS

N1964Y :: KBUR-KLAS

FLIGHT INFORMATION

Flight Status: Arrived
Operator: Privately registered:
United States
More flights under this callsign
Pilot: Brendan H. (33476)
Aircraft: Unknown
(EPIC)
More flights by this aircraft type
Origin: KBUR Bob Hope-Burbank
United States
Destination: KLAS McCarran Intl
United States
More flights between these airports :: More routes between these airports
Route: VVERA2 DAG CRESO4
File this flight plan on PilotEdge
Remarks:
Altitude:
(Current/Filed)
17,000ft
Speed:
(Current/Filed)
300kts
Departed: 22-Feb-21 09:33 PM
Arrived: 22-Feb-21 10:36 PM
Distance/Time
Traveled:
193nm/1:03
Distance/Time
To Go:
Arrived

Flight Plot

Page will automatically refresh every two minutes.

Flight plan parsing failed; only flown route is shown


Map Options




Map Legend


Flown Route
Filed Route
Departure Airport
Arrival Airport
Navaid (VOR, NDB)
Fix

Horizontal Profiles

Position Reports

Time Latitude Longitude Heading Altitude Ground
Speed
22-Feb-21 21:13 34.200359 -118.363564 230 737ft 0kts
22-Feb-21 21:14 34.200359 -118.363564 230 737ft 0kts
22-Feb-21 21:15 34.200359 -118.363564 230 737ft 0kts
22-Feb-21 21:16 34.200359 -118.363564 230 737ft 0kts
22-Feb-21 21:17 34.200359 -118.363564 230 737ft 0kts
22-Feb-21 21:18 34.200359 -118.363564 230 737ft 0kts
22-Feb-21 21:19 34.200359 -118.363564 230 737ft 0kts
22-Feb-21 21:20 34.200359 -118.363564 230 737ft 0kts
22-Feb-21 21:21 34.200359 -118.363564 230 737ft 0kts
22-Feb-21 21:22 34.200359 -118.363564 230 737ft 0kts
22-Feb-21 21:23 34.200359 -118.363564 230 737ft 0kts
22-Feb-21 21:24 34.200359 -118.363564 230 737ft 0kts
22-Feb-21 21:25 34.200359 -118.363564 230 737ft 0kts
22-Feb-21 21:26 34.200040 -118.364398 236 737ft 0kts
22-Feb-21 21:27 34.200040 -118.364398 236 737ft 0kts
22-Feb-21 21:28 34.199194 -118.364597 211 737ft 9kts
22-Feb-21 21:29 34.199153 -118.367868 270 737ft 17kts
22-Feb-21 21:30 34.198788 -118.368980 188 737ft 0kts
22-Feb-21 21:31 34.198788 -118.368980 188 737ft 0kts
22-Feb-21 21:32 34.197890 -118.362933 89 737ft 90kts
22-Feb-21 21:33 34.191094 -118.312197 142 2238ft 165kts
22-Feb-21 21:34 34.153895 -118.333071 221 4290ft 191kts
22-Feb-21 21:35 34.132829 -118.386790 313 5403ft 205kts
22-Feb-21 21:36 34.185647 -118.406798 348 7083ft 194kts
22-Feb-21 21:37 34.235158 -118.418359 348 9538ft 176kts
22-Feb-21 21:38 34.282177 -118.429216 348 12014ft 172kts
22-Feb-21 21:39 34.329562 -118.440106 354 14016ft 197kts
22-Feb-21 21:40 34.384967 -118.425376 14 15677ft 201kts
22-Feb-21 21:41 34.429043 -118.386516 50 17025ft 225kts
22-Feb-21 21:43 34.467700 -118.320077 64 17022ft 250kts
22-Feb-21 21:44 34.496008 -118.242163 66 17017ft 254kts
22-Feb-21 21:45 34.517515 -118.160652 76 17017ft 254kts
22-Feb-21 21:46 34.533820 -118.077223 76 17017ft 254kts
22-Feb-21 21:47 34.549993 -117.993812 76 17017ft 254kts
22-Feb-21 21:48 34.566121 -117.910295 76 17017ft 254kts
22-Feb-21 21:49 34.582189 -117.826770 76 17017ft 254kts
22-Feb-21 21:50 34.598236 -117.743057 76 17018ft 255kts
22-Feb-21 21:51 34.614323 -117.659381 76 17008ft 255kts
22-Feb-21 21:52 34.630387 -117.575503 76 17008ft 254kts
22-Feb-21 21:53 34.646340 -117.491878 76 17008ft 254kts
22-Feb-21 21:54 34.662222 -117.407927 76 17008ft 255kts
22-Feb-21 21:55 34.678018 -117.324234 77 17009ft 255kts
22-Feb-21 21:56 34.693783 -117.240469 77 17009ft 255kts
22-Feb-21 21:57 34.709555 -117.156453 77 17009ft 255kts
22-Feb-21 21:58 34.725209 -117.072732 77 17009ft 255kts
22-Feb-21 21:59 34.748622 -116.992263 58 17010ft 254kts
22-Feb-21 22:00 34.786169 -116.919309 57 17009ft 255kts
22-Feb-21 22:01 34.823868 -116.846612 57 17009ft 255kts
22-Feb-21 22:02 34.861629 -116.773660 57 17009ft 255kts
22-Feb-21 22:03 34.899375 -116.700588 57 17009ft 255kts
22-Feb-21 22:04 34.937047 -116.627505 57 17009ft 255kts
22-Feb-21 22:05 34.973348 -116.553569 61 17009ft 255kts
22-Feb-21 22:06 35.007159 -116.477639 61 17009ft 255kts
22-Feb-21 22:06 35.035280 -116.414280 61 17009ft 255kts
22-Feb-21 22:08 35.074570 -116.325575 61 17009ft 255kts
22-Feb-21 22:09 35.108308 -116.249217 61 17009ft 255kts
22-Feb-21 22:09 35.136226 -116.185900 61 17009ft 255kts
22-Feb-21 22:11 35.175342 -116.096988 61 17009ft 255kts
22-Feb-21 22:11 35.203259 -116.033392 61 17009ft 255kts
22-Feb-21 22:12 35.236799 -115.956825 61 17004ft 255kts
22-Feb-21 22:13 35.268117 -115.885133 61 16318ft 240kts
22-Feb-21 22:15 35.305257 -115.799946 61 14741ft 242kts
22-Feb-21 22:16 35.347958 -115.737413 47 13666ft 238kts
22-Feb-21 22:16 35.385068 -115.687888 47 12834ft 237kts
22-Feb-21 22:17 35.430335 -115.627439 47 11845ft 250kts
22-Feb-21 22:18 35.477735 -115.564008 47 10847ft 252kts
22-Feb-21 22:19 35.524680 -115.501101 47 10007ft 245kts
22-Feb-21 22:20 35.569431 -115.441073 47 9999ft 236kts
22-Feb-21 22:21 35.613719 -115.381541 47 9999ft 235kts
22-Feb-21 22:22 35.657782 -115.322242 47 10000ft 235kts
22-Feb-21 22:23 35.701932 -115.262683 47 9998ft 235kts
22-Feb-21 22:24 35.760639 -115.225021 21 9199ft 241kts
22-Feb-21 22:25 35.821743 -115.195366 21 8196ft 235kts
22-Feb-21 22:26 35.882250 -115.165960 21 7198ft 234kts
22-Feb-21 22:27 35.940826 -115.137479 21 6877ft 222kts
22-Feb-21 22:28 35.997770 -115.107256 28 5171ft 237kts
22-Feb-21 22:29 36.043858 -115.132228 309 5520ft 191kts
22-Feb-21 22:30 36.086309 -115.150744 25 4615ft 162kts
22-Feb-21 22:31 36.128314 -115.133287 13 4487ft 107kts
22-Feb-21 22:32 36.154002 -115.134351 275 3097ft 105kts
22-Feb-21 22:33 36.127016 -115.140916 205 2655ft 110kts
22-Feb-21 22:34 36.100790 -115.155775 205 2266ft 99kts
22-Feb-21 22:35 36.089339 -115.163375 295 2128ft 0kts
22-Feb-21 22:36 36.089426 -115.163617 300 2128ft 1kts

Navigation Log

Ident Type
Flight plan parsing failed, navigation log unavailable